Stone Lake, WI (54876)

9:57 AM CDT on June 26, 2017 (GMT -0500)
Lake Site | | Change Station

Elev 1200 ft 45.82 °N, 91.54 °W | Updated 9 seconds ago

Partly Cloudy
Partly Cloudy
54.9 °F
Feels Like 54.9 °F
N
0.0
Wind Variable Wind from ENE

Today
High -- | Low -- °F
--% Chance of Precip.
Yesterday
High -- | Low -- °F
Precip. -- in
Pressure 30.16 in
Visibility 10.0 miles
Clouds Scattered Clouds 1700 ft
Mostly Cloudy 2300 ft
Dew Point 47 °F
Humidity 76%
Rainfall 0.00 in
Snow Depth Not available.
5:17 AM 9:00 PM
Waxing Crescent, 9% visible
METAR KHYR 261453Z AUTO VRB03KT 10SM SCT017 BKN023 12/08 A3014 RMK AO2 SLP213 60000 T01220078 51008
Pressure 30.16 in
Visibility 10.0 miles
Clouds Scattered Clouds 1700 ft
Mostly Cloudy 2300 ft
Dew Point 47 °F
Humidity 76%
Rainfall 0.00 in
Snow Depth Not available.
5:17 AM 9:00 PM
Waxing Crescent, 9% visible
METAR KHYR 261453Z AUTO VRB03KT 10SM SCT017 BKN023 12/08 A3014 RMK AO2 SLP213 60000 T01220078 51008

Get Severe Weather Alerts

Thanks for signing up!

Be on the lookout for a verification email in your inbox.

You'll start receiving the daily forecast at 6 AM.

×

10-Day Weather Forecast

Almanac

Astronomy

Jun. 26, 2017 Rise Set
Actual Time
Civil Twilight
Nautical Twilight
Astronomical Twilight
Moon
Length of Visible Light
Length of Day
Tomorrow will be .
, % of the Moon is Illuminated

Today's Extremes

State Highs State Lows

Community

WunderPhotos

Category 6

Welcome to Category 6. This is the collective home for Weather Underground's featured writeups by Dr. Jeff Masters (right), Bob Henson (left), Chris Burt, and other regular contributors.

Nearby

Air Quality

  Air Quality AQ Index Pollutant
Not available.

Snow Depth

Station Depth Elevation

Earthquake Activity

City Distance Mag. Time & Date
Minimum magnitude displayed is 2.5.

Coastal Water Temperatures

Place Temperature

Stations

Nearby Weather Stations

Station Location Temp. Windchill Dew Point Humidity Wind Precip. Elev Updated Type
                   

Watches & Warnings

There are currently no watches in effect.